Tiempo atmosférico en la estación meteorológica de Ceuta, Ceuta (87 m.)



Fecha
DESCASC
Temp. máxima en grados centígrados (hora)
DESCASC
Temp. mínima en grados centígrados (hora)
DESCASC
Temp. media en grados centígrados
DESCASC
Racha de viento máxima en m/sg (hora)
DESCASC
Velocidad máxima media en intervalos de 10 minutos(hora)
DESCASC
Precipitaciones diarias en mm
DESCASC
Precipitaciones de 00:00 a 06:00 en mm
DESCASC
Precipitaciones de 06:00 a 12:00 en mm
DESCASC
Precipitaciones de 12:00 a 18:00 en mm
DESCASC
Precipitaciones de 18:00 a 24:00 en mm
DESCASC
26-11-2020 14.5 (15:40) 11.2 (23:50) 12.8 9.17 (07:40) 4.44 (13:40) 6.4 4.8 1.6 0 0
25-11-2020 17.1 (15:20) 13.5 (19:50) 15.3 6.39 (16:40) 2.5 (16:50) 10.6 0 0.2 8.2 2.2
24-11-2020 19 (10:30) 15 (04:20) 17 6.39 (01:00) 4.17 (01:10) 0.3 0 0.3 0 0
23-11-2020 18.8 (13:30) 15.6 (04:50) 17.2 9.72 (11:10) 5.83 (10:50) 0 0 0 0 0
22-11-2020 18.6 (13:30) 15.8 (00:00) 17.2 13.33 (02:00) 7.78 (02:40) 0 0 0 0 0
21-11-2020 19.9 (12:00) 16.7 (00:00) 18.3 13.89 (23:40) 7.78 (18:40) 0 0 0 0 0
20-11-2020 20.1 (13:00) 16.6 (00:00) 18.4 9.72 (00:40) 5.56 (11:10) 0 0 0 0 0
19-11-2020 19.5 (12:00) 17.3 (00:00) 18.4 10 (11:00) 6.39 (12:10) 0 0 0 0 0
18-11-2020 18.8 (13:50) 17.5 (00:00) 18.1 6.11 (22:50) 3.61 (22:50) 0 0 0 0 0
17-11-2020 22.4 (01:30) 17.6 (00:00) 20 6.11 (07:30) 3.89 (07:30) 0 0 0 0 0
16-11-2020 26.1 (13:00) 14.2 (00:00) 20.2 12.22 (16:50) 4.72 (17:10) 0.2 0.2 0 0 0
15-11-2020 20.5 (14:20) 15.8 (00:00) 18.2 5.83 (19:20) 3.33 (19:20) 0 0 0 0 0
14-11-2020 20.1 (16:30) 16.6 (00:00) 18.4 3.61 (23:20) 2.22 (15:50) 1.2 0 1.2 0 0
13-11-2020 19.9 (11:30) 17.5 (00:00) 18.7 4.72 (10:50) 3.06 (10:50) 0 0 0 0 0
12-11-2020 18.8 (10:00) 17.8 (00:00) 18.3 9.17 (11:00) 5.56 (00:10) 0 0 0 0 0
11-11-2020 19.2 (12:50) 17.6 (00:00) 18.4 11.11 (15:10) 6.39 (15:10) 1 0 0.8 0.2 0
10-11-2020 20.3 (14:00) 15.2 (00:00) 17.7 8.89 (23:50) 5.28 (23:59) 0 0 0 0 0
09-11-2020 21.4 (14:00) 14.8 (00:00) 18.1 5 (12:30) 2.5 (11:00) 0 0 0 0 0
08-11-2020 20.4 (14:40) 15.3 (00:00) 17.8 4.17 (12:40) 3.06 (12:30) 0 0 0 0 0
07-11-2020 22.3 (14:50) 16.8 (00:00) 19.5 10 (04:30) 4.17 (04:00) 5.8 5.2 0.6 0 0
06-11-2020 21.6 (14:50) 16.7 (00:00) 19.2 8.33 (15:10) 4.44 (14:00) 0.2 0 0 0 0.2
05-11-2020 20.9 (14:10) 16.1 (00:00) 18.5 8.61 (08:30) 5 (00:40) 0.4 0.2 0 0 0.2
04-11-2020 19.9 (14:40) 15.9 (00:00) 17.9 9.44 (22:50) 5 (23:00) 5.6 0 0 3.6 2
03-11-2020 19.4 (14:00) 14.6 (00:00) 17 5.28 (17:00) 3.61 (17:00) 0 0 0 0 0
02-11-2020 19.6 (12:30) 15.5 (00:00) 17.6 5.83 (17:10) 3.61 (17:10) 0 0 0 0 0
01-11-2020 19.8 (15:20) 15.4 (00:00) 17.6 4.72 (14:10) 3.33 (17:40) 0 0 0 0 0
31-10-2020 21 (15:20) 16.3 (00:00) 18.6 4.72 (00:40) 3.33 (00:40) 0 0 0 0 0
30-10-2020 19.9 (11:50) 16.7 (00:00) 18.3 6.39 (10:50) 4.44 (10:50) 0 0 0 0 0
29-10-2020 20.7 (13:10) 15.4 (00:00) 18.1 7.78 (13:20) 5.28 (15:20) 0 0 0 0 0
28-10-2020 20.5 (15:50) 14.2 (00:00) 17.3 4.17 (11:40) 2.78 (12:00) 0 0 0 0 0

Gráficas

Temp. máximas Temp. mínimas Temp. medias Precipitaciones Rachas de viento máximas Velocidades máximas media en intervalos de 10 minutos

Datos horarios

Fecha y hora oficial Temperatura (ºC) Velocidad del viento (km/h) Dirección del viento Racha (km/h) Dirección de racha Precipitación (mm) Presión (hPa) Tendencia (hPa) Humedad (%)
2020-11-26 23:00:00 11.6 5 Oeste 8 Oeste 0 997.7 -0.1 73
2020-11-26 22:00:00 11.4 3 Oeste 8 Oeste 0 998.1 -- 72
2020-11-26 21:00:00 12.3 3 Sudoeste 12 Sudoeste 0 997.9 -- 62
2020-11-26 20:00:00 11.7 5 Sudoeste 11 Sudoeste 0 997.8 -- 68
2020-11-26 19:00:00 12.7 6 Sur 13 Sur 0 997.8 -- 64
2020-11-26 18:00:00 14 8 Sur 18 Sur 0 997.3 -- 61
2020-11-26 17:00:00 14.4 10 Sur 20 Sur 0 997.3 -- 61
2020-11-26 16:00:00 14.4 12 Sur 28 Sur 0 997.6 -- 62
2020-11-26 15:00:00 14 13 Sudoeste 32 Sudoeste 0 997.6 -- 65
2020-11-26 14:00:00 13.5 14 Sur 33 Sur 0 997.9 -- 70
2020-11-26 13:00:00 14.2 9 Sur 19 Sur 0 998.7 -- 64
2020-11-26 12:00:00 13.4 10 Sur 22 Sudoeste 0.2 998.9 -- 68
2020-11-26 11:00:00 12.8 6 Sudoeste 14 Sudoeste 0 998.8 -- 69
2020-11-26 10:00:00 12.3 3 Norte 17 Sudoeste 0 998.4 -- 76
2020-11-26 09:00:00 11.7 7 Oeste 18 Sudoeste 0.2 998 -- 82
2020-11-26 08:00:00 12.2 13 Sur 33 Sur 0 997.6 -- 76
2020-11-26 07:00:00 12.3 7 Sudoeste 18 Sur 1.2 998 -- 85
2020-11-26 06:00:00 12.7 6 Sur 14 Sur 0.4 997.7 -- 87
2020-11-26 05:00:00 13.2 6 Sur 20 Sudoeste 0.2 997.7 -- 82
2020-11-26 04:00:00 13.2 7 Sudoeste 17 Sur 0.2 998.2 -- 81
2020-11-26 03:00:00 12.7 6 Sudoeste 10 Sudoeste 0.2 999.1 -- 85
2020-11-26 02:00:00 12.8 5 Sur 21 Oeste 1.6 999.8 -- 85
2020-11-26 01:00:00 13.8 7 Sudoeste 15 Oeste 2.2 1000.5 -- 88
2020-11-26 00:00:00 14.4 3 Sudoeste 9 Sudoeste 0.2 1000.8 -- 93
2020-11-25 23:00:00 14.1 4 Sudoeste 10 Sur 0 1000.9 -- 92
2020-11-25 22:00:00 14.1 8 Sur 12 Sur 0 1000.7 -- 92
2020-11-25 21:00:00 14 5 Sudoeste 11 Sudoeste 2 1001.6 -- 93
2020-11-25 20:00:00 13.5 3 Noroeste 8 Noroeste 0 1001.2 -- 94
2020-11-25 19:00:00 13.9 0 Calma 8 Noroeste 0 1001.7 -- 92
2020-11-25 18:00:00 14.1 0 Calma 14 Noroeste 4.8 1002 -- 90
2020-11-25 17:00:00 15.3 8 Noroeste 23 Noroeste 0.8 1002 -- 84
2020-11-25 16:00:00 17.1 6 Sur 11 Sur 0 1002.3 -- 84
2020-11-25 15:00:00 16.6 4 Sur 7 Sur 0.4 1002.8 -- 87
2020-11-25 14:00:00 16.3 2 Nordeste 5 Oeste 0 1003.8 -- 88
2020-11-25 13:00:00 16.3 2 Este -- -- -- 1005 -- 83
2020-11-25 12:00:00 16.8 6 Sur 11 Sur 0.2 1006.5 -- 81
2020-11-25 11:00:00 16.7 6 Sur 11 Sur 0 1006.8 -- 81
2020-11-25 10:00:00 16.1 4 Sudoeste 12 Sur 0 1006.7 -- 83
2020-11-25 09:00:00 15.7 5 Sur 12 Sur 0 1007.1 -- 85
2020-11-25 08:00:00 15.9 8 Sur 14 Sudeste 0 1006.9 -- 85
2020-11-25 07:00:00 15.8 5 Sur 11 Sur 0 1007.1 -- 77
2020-11-25 06:00:00 15.6 3 Sudeste 5 Sur 0 1007.4 -- 79
2020-11-25 05:00:00 15.5 3 Sur 6 Sur 0 1007.9 -- 80
2020-11-25 04:00:00 15.8 5 Sur 6 Sur 0 1008.5 -- 80
2020-11-25 03:00:00 15.7 3 Sudeste 4 Sudeste 0 1008.8 -- 82
2020-11-25 02:00:00 15.6 2 Sudoeste 9 Sur 0 1009.5 -- 83
2020-11-25 01:00:00 15.4 4 Sudoeste 10 Sur 0 1010.2 -- 82
2020-11-25 00:00:00 15.2 6 Sur 9 Sur 0 1010.5 -- 84
2020-11-24 23:00:00 15.2 6 Sur 9 Sudoeste 0 1010.8 -- 84
2020-11-24 22:00:00 15.2 5 Sudoeste 8 Sudoeste 0 1010.9 -- 83
2020-11-24 21:00:00 15.4 4 Oeste 9 Sudoeste 0 1011.1 -- 82
2020-11-24 20:00:00 16 5 Sur 12 Sur 0 1011.1 -- 80
2020-11-24 19:00:00 16.2 6 Sudoeste 12 Sur 0 1011.2 -- 78
2020-11-24 18:00:00 16.3 6 Sur 12 Sudeste 0 1011 -- 77
2020-11-24 17:00:00 17.2 6 Sudeste 12 Sudeste 0 1011.1 -- 73
2020-11-24 16:00:00 17.8 8 Sur 14 Sudeste 0 1011.2 -- 69
2020-11-24 15:00:00 18.2 8 Sudeste 15 Sudeste 0 1011.8 -- 67
2020-11-24 14:00:00 18.8 6 Sudeste 14 Sudeste 0 1012.6 -- 65
2020-11-24 13:00:00 18.6 8 Sur 17 Sur 0 1013.5 -- 63
2020-11-24 12:00:00 18.8 8 Sur 14 Sur 0 1014.6 -- 65
2020-11-24 11:00:00 18 8 Sudeste 15 Sudeste -- 1014.8 -- 68
2020-11-24 10:00:00 17 8 Sur 14 Sur 0 1014.6 -- 73
2020-11-24 09:00:00 15.4 5 Sudoeste 9 Sudoeste 0 1014.3 -- 80
2020-11-24 08:00:00 15.6 5 Sur 14 Nordeste 0 1014.1 -- 78
2020-11-24 07:00:00 15.5 5 Este 15 Este 0 1013.9 -- 78
2020-11-24 06:00:00 15.4 7 Este 14 Este 0 1013.8 -- 76
2020-11-24 05:00:00 15 6 Este 15 Este 0 1014 -- 78
2020-11-24 04:00:00 15.2 6 Este 15 Nordeste 0 1014.4 -- 76
2020-11-24 03:00:00 15.6 9 Este 22 Este 0 1014.8 -- 75
2020-11-24 02:00:00 16.1 13 Este 23 Este 0 1015 -- 74
2020-11-24 01:00:00 16.1 13 Este 23 Sudeste 0 1015.2 -- 73
2020-11-24 00:00:00 16.1 12 Este 25 Sudeste 0 1015.6 -- 69
2020-11-23 23:00:00 16.1 12 Este 25 Sudeste 0 1016 -- 67
2020-11-23 22:00:00 16 12 Sudeste 22 Sudeste 0 1015.9 -- 68
2020-11-23 21:00:00 15.9 12 Sudeste 23 Sudeste 0 1016.1 -- 65
2020-11-23 20:00:00 15.9 14 Este 25 Sudeste 0 1016 -- 66
2020-11-23 19:00:00 16 13 Este 26 Este 0 1015.8 -- 65
2020-11-23 18:00:00 16.3 13 Sudeste 26 Sudeste 0 1015.5 -- 67
2020-11-23 17:00:00 17.1 13 Sudeste 24 Sudeste 0 1015.3 -- 62
2020-11-23 16:00:00 17.5 16 Sudeste 28 Sudeste 0 1015.4 -- 61
2020-11-23 15:00:00 17.2 15 Sudeste 29 Este 0 1015.5 -- 63
2020-11-23 14:00:00 18.4 17 Sudeste 28 Este 0 1016.1 -- 58
2020-11-23 13:00:00 18.3 18 Sudeste 31 Sudeste 0 1016.8 -- 58
2020-11-23 12:00:00 18.1 16 Sudeste 35 Sudeste 0 1017.3 -- 59
2020-11-23 11:00:00 17.7 18 Este 34 Este 0 1017.5 -- 61
2020-11-23 10:00:00 16.8 16 Sudeste 28 Este 0 1016.9 -- 66
2020-11-23 09:00:00 16.4 15 Sudeste 28 Este 0 1016.5 -- 68
2020-11-23 08:00:00 15.7 14 Sudeste 27 Sudeste 0 1016 -- 70
2020-11-23 07:00:00 15.7 15 Sudeste 24 Sudeste 0 1015.7 -- 70
2020-11-23 06:00:00 15.8 13 Sudeste 28 Este 0 1015.5 -- 68
2020-11-23 05:00:00 15.6 12 Este 27 Este 0 1015.5 -- 63
2020-11-23 04:00:00 16 14 Este 27 Este 0 1015.7 -- 63
2020-11-23 03:00:00 15.9 14 Este 22 Sudeste 0 1015.9 -- 64
2020-11-23 02:00:00 16 14 Sudeste 25 Sudeste 0 1016 -- 66
2020-11-23 01:00:00 16.1 13 Sudeste 26 Este 0 1016.2 -- 67
2020-11-23 00:00:00 16 14 Sudeste 25 Sudeste 0 1016.2 -- 67
2020-11-22 23:00:00 15.8 14 Sudeste 27 Sudeste 0 1016.1 -- 70
2020-11-22 22:00:00 15.9 16 Este 32 Este 0 1016.1 -- 69
2020-11-22 21:00:00 16 18 Sudeste 33 Este 0 1015.9 -- 68
2020-11-22 20:00:00 16.2 20 Este 35 Este 0 1015.8 -- 65
2020-11-22 19:00:00 16.3 19 Sudeste 36 Este 0 1015.5 -- 59
2020-11-22 18:00:00 16.6 19 Sudeste 34 Sudeste 0 1015.4 -- 57
2020-11-22 17:00:00 16.9 20 Este 36 Este 0 1015.4 -- 56
2020-11-22 16:00:00 17.8 19 Este 35 Sudeste 0 1015.3 -- 51
2020-11-22 15:00:00 18.1 20 Sudeste 37 Sudeste 0 1015.6 -- 42
2020-11-22 14:00:00 18.3 21 Este 37 Este 0 1016 -- 46
2020-11-22 13:00:00 18.5 20 Este 37 Este 0 1016.6 -- 50
2020-11-22 12:00:00 18.2 23 Este 39 Este 0 1017.3 -- 51
2020-11-22 11:00:00 17.9 18 Sudeste 36 Sudeste 0 1017.4 -- 59
2020-11-22 10:00:00 17.3 18 Sudeste 42 Este 0 1017 -- 62
2020-11-22 09:00:00 16.3 21 Sudeste 41 Sudeste 0 1016.8 -- 65
2020-11-22 08:00:00 16.2 19 Este 39 Este 0 1016.5 -- 59
2020-11-22 07:00:00 16.1 23 Este 38 Este 0 1016.1 -- 61
2020-11-22 06:00:00 16.2 21 Sudeste 39 Sudeste 0 1015.8 -- 67
2020-11-22 05:00:00 16.4 21 Sudeste 41 Este 0 1015.8 -- 61
2020-11-22 04:00:00 16.7 24 Este 45 Este 0 1015.8 -- 67
2020-11-22 03:00:00 16.7 26 Este 46 Este 0 1015.8 -- 66
2020-11-22 02:00:00 16.8 27 Este 48 Este 0 1015.9 -- 68
2020-11-22 01:00:00 17 23 Sudeste 41 Este 0 1016.1 -- 68
2020-11-22 00:00:00 17.3 24 Este 50 Este 0 1016.1 -- 61
2020-11-21 23:00:00 17.4 24 Este 43 Este 0 1016.1 -- 61
2020-11-21 22:00:00 17.5 22 Este 40 Este 0 1015.9 -- 66
2020-11-21 21:00:00 17.4 20 Este 41 Sudeste 0 1015.7 -- 69
2020-11-21 20:00:00 17.4 23 Este 40 Este 0 1015.4 -- 73
2020-11-21 19:00:00 17.6 24 Este 43 Este 0 1014.9 -- 79
2020-11-21 18:00:00 17.6 23 Este 44 Este 0 1014.3 -- 81
2020-11-21 17:00:00 18.1 23 Este 39 Este 0 1014.1 -- 79
2020-11-21 16:00:00 18.6 19 Este 35 Sudeste 0 1014 -- 75
2020-11-21 15:00:00 19.4 19 Sudeste 37 Sudeste 0 1014.1 -- 73
2020-11-21 14:00:00 18.9 22 Sudeste 35 Sudeste 0 1014.7 -- 73
2020-11-21 13:00:00 19 19 Sudeste 33 Sudeste 0 1015.3 -- 73
2020-11-21 12:00:00 19.7 17 Sudeste 32 Este 0 1015.7 -- 68
2020-11-21 11:00:00 19.1 18 Sudeste 34 Sudeste 0 1015.5 -- 75
2020-11-21 10:00:00 18.2 17 Sudeste 27 Sudeste 0 1015.3 -- 81
2020-11-21 09:00:00 17.7 13 Sudeste 27 Sudeste 0 1014.8 -- 83
2020-11-21 08:00:00 16.9 13 Sudeste 26 Sudeste 0 1014.4 -- 86
2020-11-21 07:00:00 17.1 13 Sudeste 26 Sudeste 0 1013.8 -- 86
2020-11-21 06:00:00 17.3 12 Sudeste 27 Este 0 1013.6 -- 87
2020-11-21 05:00:00 17.4 17 Este 32 Sudeste 0 1013.9 -- 85
2020-11-21 04:00:00 17.4 18 Este 32 Este 0 1014 -- 86
2020-11-21 03:00:00 17.1 16 Este 30 Este 0 1014 -- 85
2020-11-21 02:00:00 16.9 15 Sudeste 26 Sudeste 0 1014.3 -- 85
2020-11-21 01:00:00 16.7 13 Este 24 Este 0 1014.8 -- 88
2020-11-21 00:00:00 16.8 13 Este 24 Este 0 1014.7 -- 87
2020-11-20 23:00:00 17 13 Este 23 Sudeste 0 1014.5 -- 87
2020-11-20 22:00:00 17.2 14 Sudeste 24 Sudeste 0 1014.6 -- 85
2020-11-20 21:00:00 17.2 13 Sudeste 27 Este 0 1014.5 -- 85
2020-11-20 20:00:00 17.3 15 Este 23 Este 0 1014.4 -- 88
2020-11-20 19:00:00 17.5 13 Sudeste 23 Este 0 1014 -- 85
2020-11-20 18:00:00 17.5 13 Sudeste 25 Sudeste 0 1013.9 -- 85
2020-11-20 17:00:00 18 16 Este 26 Este 0 1013.9 -- 84
2020-11-20 16:00:00 18.7 14 Este 28 Este 0 1014 -- 81
2020-11-20 15:00:00 18.8 16 Sudeste 27 Sudeste 0 1014 -- 82
2020-11-20 14:00:00 19.7 16 Sudeste 28 Sudeste 0 1014.6 -- 77
2020-11-20 13:00:00 20 15 Este 28 Sudeste 0 1015.3 -- 73
2020-11-20 12:00:00 19.5 19 Sudeste 32 Este 0 1016.2 -- 75
2020-11-20 11:00:00 19 19 Este 31 Este 0 1016.4 -- 77
2020-11-20 10:00:00 18.6 15 Sudeste 24 Sudeste 0 1016.3 -- 78
2020-11-20 09:00:00 17.5 14 Sudeste 26 Este 0 1016.3 -- 81
2020-11-20 08:00:00 16.7 17 Este 29 Este 0 1016.4 -- 84
2020-11-20 07:00:00 16.7 16 Este 32 Este 0 1016 -- 84
2020-11-20 06:00:00 16.9 15 Este 29 Este 0 1016 -- 84
2020-11-20 05:00:00 16.8 14 Sudeste 29 Este 0 1016.1 -- 86
2020-11-20 04:00:00 16.8 13 Este 32 Este 0 1016.9 -- 87
2020-11-20 03:00:00 16.9 15 Este 28 Sudeste 0 1017.3 -- 85
2020-11-20 02:00:00 17 14 Este 30 Este 0 1017.7 -- 85
2020-11-20 01:00:00 17.2 17 Este 35 Este 0 1018 -- 86
2020-11-20 00:00:00 17.4 17 Este 28 Sudeste 0 1018.3 -- 88
2020-11-19 23:00:00 17.4 17 Este 31 Este 0 1018.2 -- 87
2020-11-19 22:00:00 17.4 17 Este 28 Este 0 1018.4 -- 88
2020-11-19 21:00:00 17.5 16 Este 32 Este 0 1018.5 -- 87
2020-11-19 20:00:00 17.7 15 Este 30 Este 0 1018.4 -- 85
2020-11-19 19:00:00 17.8 18 Este 32 Este 0 1017.9 -- 86
2020-11-19 18:00:00 18 16 Este 35 Este 0 1017.5 -- 85
2020-11-19 17:00:00 18.3 19 Este 35 Este 0 1017.4 -- 81
2020-11-19 16:00:00 18.3 19 Este 35 Este 0 1017.2 -- 82
2020-11-19 15:00:00 18.9 17 Este 35 Sudeste 0 1017.2 -- 80
2020-11-19 14:00:00 19.1 19 Este 34 Sudeste 0 1017.6 -- 79
2020-11-19 13:00:00 19 19 Este 33 Sudeste 0 1018.1 -- 78
2020-11-19 12:00:00 19.5 21 Este 36 Este 0 1018.5 -- 74
2020-11-19 11:00:00 19.3 23 Este 36 Este 0 1018.3 -- 77
2020-11-19 10:00:00 18.9 20 Este 34 Este 0 1017.8 -- 82
2020-11-19 09:00:00 18 18 Este 29 Este 0 1017.1 -- 87
2020-11-19 08:00:00 17.6 18 Este 29 Sudeste 0 1016.5 -- 92
2020-11-19 07:00:00 17.4 13 Este 26 Este 0 1015.8 -- 92
2020-11-19 06:00:00 17.5 16 Este 33 Este 0 1015.5 -- 91
2020-11-19 05:00:00 17.4 16 Este 27 Este 0 1015.3 -- 91
2020-11-19 04:00:00 17.5 14 Este 27 Sudeste 0 1015.5 -- 90
2020-11-19 03:00:00 17.8 14 Este 25 Sudeste 0 1015.4 -- 91
2020-11-19 02:00:00 17.9 14 Este 24 Sudeste 0 1015.6 -- 91
2020-11-19 01:00:00 17.9 13 Este 23 Sudeste 0 1016 -- 86
2020-11-19 00:00:00 18 13 Este 21 Este 0 1016.3 -- 83
2020-11-18 23:00:00 18.1 12 Sudeste 22 Este 0 1016.4 -- 79
2020-11-18 22:00:00 17.9 9 Sudeste 19 Sudeste 0 1016.4 -- 82
2020-11-18 21:00:00 17.9 8 Sudeste 14 Sudeste 0 1016.1 -- 88
2020-11-18 20:00:00 17.9 8 Sudeste 15 Sur 0 1015.8 -- 88
2020-11-18 19:00:00 17.9 9 Sudeste 17 Sudeste 0 1015.6 -- 87
2020-11-18 18:00:00 17.9 9 Sudeste 19 Sudeste 0 1015.5 -- 85
2020-11-18 17:00:00 18.2 9 Sudeste 15 Sur 0 1015.7 -- 83
2020-11-18 16:00:00 18.5 8 Sur 17 Sur 0 1015.6 -- 82
2020-11-18 15:00:00 18.7 10 Sudeste 17 Sur 0 1015.9 -- 82
2020-11-18 14:00:00 18.7 10 Sur 18 Sur 0 1016.3 -- 81
2020-11-18 13:00:00 18.5 12 Sudeste 18 Sur 0 1016.9 -- 82
2020-11-18 12:00:00 18.2 9 Sudeste 16 Sur 0 1017.5 -- 84
2020-11-18 11:00:00 18.2 10 Sur 17 Sur 0 1017.5 -- 82
2020-11-18 10:00:00 18 9 Sur 16 Sur 0 1017.4 -- 83
2020-11-18 09:00:00 17.7 9 Sur 17 Sudeste 0 1017.1 -- 83
2020-11-18 08:00:00 17.6 9 Sudeste 16 Sudeste 0 1016.6 -- 85
2020-11-18 07:00:00 17.5 10 Sudeste 19 Sudeste 0 1016.3 -- 83
2020-11-18 06:00:00 17.5 9 Sudeste 15 Sudeste 0 1016 -- 86
2020-11-18 05:00:00 17.5 9 Sudeste 16 Sudeste 0 1015.9 -- 84
2020-11-18 04:00:00 17.5 8 Sudeste 18 Sudeste 0 1015.9 -- 86
2020-11-18 03:00:00 17.6 9 Sudeste 17 Sudeste 0 1016 -- 86
2020-11-18 02:00:00 17.7 8 Sur 15 Sur 0 1016.4 -- 85
2020-11-18 01:00:00 17.6 8 Sur 13 Sudeste 0 1016.7 -- 85
2020-11-18 00:00:00 17.7 8 Sur 14 Sur 0 1016.7 -- 85
2020-11-17 23:00:00 17.9 6 Sur 13 Sur 0 1016.8 -- 85
2020-11-17 22:00:00 17.9 9 Sur 14 Sur 0 1016.8 -- 85
2020-11-17 21:00:00 17.9 7 Sur 15 Sur 0 1016.6 -- 85
2020-11-17 20:00:00 17.9 8 Sur 14 Sur 0 1016.5 -- 86
2020-11-17 19:00:00 17.8 6 Sur 12 Sur 0 1016.1 -- 86
2020-11-17 18:00:00 17.9 6 Sur 13 Sur 0 1015.9 -- 85
2020-11-17 17:00:00 18.5 8 Sur 13 Sudeste 0 1015.9 -- 83
2020-11-17 16:00:00 19.3 5 Sudeste 14 Sur 0 1015.7 -- 81
2020-11-17 15:00:00 19.6 6 Sudeste 13 Sudeste 0 1015.8 -- 80
2020-11-17 14:00:00 19.5 7 Sudeste 13 Sudeste 0 1016.2 -- 81
2020-11-17 13:00:00 19.6 8 Este 13 Sudeste 0 1016.6 -- 80
2020-11-17 12:00:00 19.3 8 Nordeste 13 Nordeste 0 1017 -- 82
2020-11-17 11:00:00 18.8 6 Nordeste 14 Nordeste 0 1017 -- 88
2020-11-17 10:00:00 18.5 7 Nordeste 10 Nordeste 0 1016.6 -- 90
2020-11-17 09:00:00 18.5 5 Norte 17 Noroeste 0 1015.9 -- 88
2020-11-17 08:00:00 17.6 10 Norte 22 Norte 0 1015.2 -- 85
2020-11-17 07:00:00 18.1 11 Norte 22 Norte 0 1014.6 -- 75
2020-11-17 06:00:00 18.4 8 Noroeste 19 Noroeste 0 1014 -- 62
2020-11-17 05:00:00 18.9 4 Sudeste 6 Este 0 1013.4 -- 54
2020-11-17 04:00:00 20.3 5 Sur 9 Sudoeste 0 1013.4 -- 45
2020-11-17 03:00:00 19.6 3 Oeste 12 Oeste 0 1013.5 -- 51
2020-11-17 02:00:00 20.7 4 Sur 12 Oeste 0 1013.5 -- 45
2020-11-17 01:00:00 21.4 6 Oeste 18 Norte 0 1013.5 -- 41
2020-11-17 00:00:00 19.7 3 Sur 6 Sur 0 1013.9 -- 48
2020-11-16 23:00:00 21 5 Sur 11 Sur 0 1014 -- 46
2020-11-16 22:00:00 21.1 3 Noroeste 13 Noroeste 0 1013.8 -- 44
2020-11-16 21:00:00 22 4 Sur 19 Oeste 0 1013.7 -- 43
2020-11-16 20:00:00 23.2 9 Oeste 23 Noroeste 0 1013.2 -- 37
2020-11-16 19:00:00 23.4 9 Oeste 33 Noroeste 0 1012.8 -- 39
2020-11-16 18:00:00 23.6 16 Oeste 40 Noroeste 0 1012.2 -- 41
2020-11-16 17:00:00 24 17 Oeste 44 Oeste 0 1011.8 -- 45
2020-11-16 16:00:00 25.1 13 Oeste 42 Noroeste 0 1011.8 -- 43
2020-11-16 15:00:00 25.6 14 Oeste 38 Oeste 0 1011.8 -- 46
2020-11-16 14:00:00 25.7 15 Oeste 34 Noroeste 0 1012.2 -- 47
2020-11-16 13:00:00 26.1 10 Oeste 33 Noroeste 0 1012.7 -- 45
2020-11-16 12:00:00 24.6 8 Oeste 25 Noroeste 0 1013.4 -- 49
2020-11-16 11:00:00 19 9 Sur 23 Oeste 0 1013.1 -- 79
2020-11-16 10:00:00 17.5 6 Sudoeste 11 Norte 0 1013 -- 91
2020-11-16 09:00:00 14.7 2 Sur 14 Sur 0 1012.6 -- 99
2020-11-16 08:00:00 14.7 6 Sudoeste 12 Sudoeste 0 1012.1 -- 99
2020-11-16 07:00:00 14.7 0 Calma 7 Sudeste 0 1011.9 -- 99
2020-11-16 06:00:00 14.6 2 Este 11 Norte 0 1011.7 -- 99
2020-11-16 05:00:00 14.2 2 Norte 10 Sur 0 1011.6 -- 99
2020-11-16 04:00:00 14.7 3 Sudoeste 5 Sur 0.2 1012.2 -- 98
2020-11-16 03:00:00 14.9 0 Calma 12 Sur 0 1012.7 -- 99
2020-11-16 02:00:00 15.2 8 Sur 14 Sur 0 1012.9 -- 99
2020-11-16 01:00:00 15.7 7 Sur 11 Sur 0 1013.2 -- 98
2020-11-16 00:00:00 15.8 6 Sur 12 Sudoeste 0 1013.4 -- 98
2020-11-15 23:00:00 16.1 8 Sur 13 Sur 0 1013.4 -- 98
2020-11-15 22:00:00 16.4 8 Sur 17 Sur 0 1013.4 -- 97
2020-11-15 21:00:00 16.7 8 Sur 17 Sudoeste 0 1013 -- 97
2020-11-15 20:00:00 16.9 11 Sur 21 Sudoeste 0 1012.6 -- 96
2020-11-15 19:00:00 17.2 10 Sur 19 Sur 0 1012.3 -- 95
2020-11-15 18:00:00 17.2 8 Sur 12 Sur 0 1012.1 -- 94
2020-11-15 17:00:00 17.7 8 Sur 15 Sur 0 1012 -- 93
2020-11-15 16:00:00 19.6 10 Sur 15 Sur 0 1011.6 -- 86
2020-11-15 15:00:00 20.3 8 Sudeste 13 Sudeste 0 1011.6 -- 82
2020-11-15 14:00:00 20.1 9 Sur 17 Sur 0 1011.8 -- 81
2020-11-15 13:00:00 19.9 10 Sudeste 19 Sur 0 1012.3 -- 83
2020-11-15 12:00:00 18.7 12 Sur 19 Sur 0 1012.9 -- 88
2020-11-15 11:00:00 17.3 9 Sur 15 Sur 0 1013.2 -- 94
2020-11-15 10:00:00 17.3 9 Sur 14 Sur 0 1012.9 -- 94
2020-11-15 09:00:00 17.4 6 Sur 9 Sur 0 1012.4 -- 95
2020-11-15 08:00:00 16.9 0 Calma 8 Noroeste 0 1012 -- 97
2020-11-15 07:00:00 15.9 4 Noroeste 7 Sur 0 1011.5 -- 92
2020-11-15 06:00:00 16.6 5 Sur 9 Sur 0 1011 -- 86
2020-11-15 05:00:00 17.6 5 Sudoeste 12 Sudoeste 0 1010.9 -- 81
2020-11-15 04:00:00 16.6 0 Calma 4 Norte 0 1011.4 -- 92
2020-11-15 03:00:00 17.3 3 Este 9 Oeste 0 1011.8 -- 86
2020-11-15 02:00:00 18.2 6 Sudoeste 10 Sudoeste 0 1012 -- 81
2020-11-15 01:00:00 18.1 6 Sudoeste 10 Sudoeste 0 1012.1 -- 84
2020-11-15 00:00:00 17.7 6 Sudoeste 13 Sur 0 1012.5 -- 87
2020-11-14 23:00:00 17.9 7 Sudoeste 12 Sudoeste 0 1012.6 -- 88
2020-11-14 22:00:00 17.7 6 Sudoeste 12 Sur 0 1012.7 -- 89
2020-11-14 21:00:00 17.7 7 Sudoeste 12 Sudoeste 0 1012.6 -- 90
2020-11-14 20:00:00 17.6 6 Sudoeste 10 Sudoeste 0 1012.2 -- 89
2020-11-14 19:00:00 17.9 6 Sur 9 Sur 0 1011.6 -- 90
2020-11-14 18:00:00 18.8 3 Sur 8 Sur 0 1011.2 -- 84
2020-11-14 17:00:00 19.8 5 Sur 10 Sudeste 0 1011 -- 80
2020-11-14 16:00:00 19.8 7 Sudeste 11 Sudeste 0 1010.7 -- 81
2020-11-14 15:00:00 18.9 4 Este 8 Nordeste 0 1010.9 -- 87
2020-11-14 14:00:00 19 7 Este 10 Sur 0 1011.3 -- 87
2020-11-14 13:00:00 19.1 7 Sur 11 Sur 0 1011.5 -- 83
2020-11-14 12:00:00 18.5 3 Sur 10 Sur 1.2 1012.4 -- 86
2020-11-14 11:00:00 18.6 3 Sudeste 7 Sudeste 0 1012.3 -- 87
2020-11-14 10:00:00 18.2 4 Sudoeste 9 Sudoeste 0 1012.1 -- 89
2020-11-14 09:00:00 17.7 3 Sudoeste 6 Sudoeste 0 1011.3 -- 91
2020-11-14 08:00:00 17.3 5 Sudoeste 8 Sudoeste 0 1010.7 -- 92
2020-11-14 07:00:00 17.2 3 Sudoeste 6 Sudoeste 0 1010.2 -- 94
2020-11-14 06:00:00 16.7 3 Sur 4 Sur 0 1009.7 -- 94
2020-11-14 05:00:00 17 3 Sudoeste 6 Sudoeste 0 1009.8 -- 92
2020-11-14 04:00:00 17.3 4 Sudoeste 8 Sudoeste 0 1010.1 -- 91
2020-11-14 03:00:00 17.5 5 Sudoeste 8 Sudoeste 0 1010.4 -- 91
2020-11-14 02:00:00 17.5 6 Sudoeste 10 Sudoeste 0 1010.5 -- 92
2020-11-14 01:00:00 17.5 5 Sudoeste 10 Sudoeste 0 1010.9 -- 91
2020-11-14 00:00:00 17.6 6 Sudoeste 9 Sudoeste 0 1011.1 -- 91
2020-11-13 23:00:00 17.8 4 Sudoeste 8 Sur 0 1011.1 -- 93
2020-11-13 22:00:00 18 4 Sur 12 Sudoeste 0 1011.1 -- 95
2020-11-13 21:00:00 18 6 Sur 10 Este 0 1010.6 -- 95
2020-11-13 20:00:00 18 5 Sudeste 9 Sudeste 0 1010.4 -- 95
2020-11-13 19:00:00 18.1 6 Sudeste 10 Este 0 1010.1 -- 94
2020-11-13 18:00:00 18.4 6 Sudeste 10 Sudeste 0 1009.7 -- 92
2020-11-13 17:00:00 18.6 6 Este 11 Sudeste 0 1009.6 -- 91
2020-11-13 16:00:00 18.8 6 Sudeste 11 Sur 0 1009.6 -- 87
2020-11-13 15:00:00 19 8 Sur 14 Sur 0 1009.7 -- 86
2020-11-13 14:00:00 19.2 8 Sudeste 14 Sur 0 1010.2 -- 86
2020-11-13 13:00:00 19.4 7 Sudeste 13 Este 0 1010.7 -- 86
2020-11-13 12:00:00 19.4 7 Sudeste 15 Sudeste 0 1011.1 -- 87
2020-11-13 11:00:00 19.5 9 Sudeste 17 Este 0 1011 -- 86
2020-11-13 10:00:00 18.4 9 Este 14 Este 0 1010.7 -- 93
2020-11-13 09:00:00 17.9 6 Sudeste 10 Sudeste 0 1010.2 -- 96
2020-11-13 08:00:00 17.6 3 Sudeste 9 Sudeste 0 1009.5 -- 96
2020-11-13 07:00:00 17.5 4 Sudeste 7 Sudeste 0 1009.1 -- 96
2020-11-13 06:00:00 17.6 4 Sudeste 8 Sudeste 0 1009 -- 96
2020-11-13 05:00:00 17.6 5 Sudeste 10 Sudeste 0 1008.8 -- 95
2020-11-13 04:00:00 17.7 6 Sudeste 9 Sudeste 0 1009.1 -- 95
2020-11-13 03:00:00 17.7 6 Sudeste 12 Sudeste 0 1009.3 -- 95
2020-11-13 02:00:00 17.7 6 Este 11 Sudeste 0 1009.5 -- 94
2020-11-13 01:00:00 17.8 7 Sudeste 13 Sudeste 0 1009.7 -- 94
2020-11-13 00:00:00 17.9 8 Sudeste 17 Este 0 1009.9 -- 93
2020-11-12 23:00:00 18 8 Sudeste 18 Sudeste 0 1010 -- 93
2020-11-12 22:00:00 18 12 Sudeste 21 Este 0 1009.6 -- 92
2020-11-12 21:00:00 17.9 14 Este 23 Este 0 1009.4 -- 92
2020-11-12 20:00:00 17.9 14 Este 23 Sudeste 0 1009.3 -- 90
2020-11-12 19:00:00 17.9 15 Este 25 Este 0 1008.9 -- 90
2020-11-12 18:00:00 18 13 Sudeste 26 Este 0 1008.7 -- 89
2020-11-12 17:00:00 18.2 15 Este 27 Sudeste 0 1008.8 -- 90
2020-11-12 16:00:00 18.5 17 Este 29 Este 0 1008.5 -- 89
2020-11-12 15:00:00 18.7 18 Este 30 Este 0 1008.7 -- 88
2020-11-12 14:00:00 18.5 17 Este 31 Este 0 1009.1 -- 88
2020-11-12 13:00:00 18.8 18 Este 32 Este 0 1009.7 -- 86
2020-11-12 12:00:00 18.7 17 Este 31 Este 0 1010.5 -- 87
2020-11-12 11:00:00 18.7 18 Este 33 Sudeste 0 1010.8 -- 87
2020-11-12 10:00:00 18.8 15 Este 29 Este 0 1010.7 -- 86
2020-11-12 09:00:00 18.3 16 Este 31 Sudeste 0 1010.4 -- 88
2020-11-12 08:00:00 17.9 14 Este 32 Este 0 1009.9 -- 90
2020-11-12 07:00:00 17.9 14 Este 32 Este 0 1009.8 -- 90
2020-11-12 06:00:00 18 16 Este 30 Este 0 1009.8 -- 90
2020-11-12 05:00:00 18 15 Este 27 Este 0 1009.8 -- 91
2020-11-12 04:00:00 17.8 13 Este 25 Este 0 1010.3 -- 92
2020-11-12 03:00:00 17.9 14 Este 26 Este 0 1010.8 -- 91
2020-11-12 02:00:00 17.8 13 Este 28 Este 0 1011.3 -- 89
2020-11-12 01:00:00 17.8 14 Este 31 Este 0 1011.8 -- 89
2020-11-12 00:00:00 17.9 18 Este 32 Este 0 1012 -- 88
2020-11-11 23:00:00 17.9 14 Este 26 Este 0 1012.2 -- 90
2020-11-11 22:00:00 17.8 16 Este 28 Este 0 1012.2 -- 88
2020-11-11 21:00:00 18 16 Este 30 Sudeste 0 1011.8 -- 89
2020-11-11 20:00:00 18 18 Este 36 Este 0 1011.5 -- 90
2020-11-11 19:00:00 18 18 Este 34 Este 0 1011.3 -- 90
2020-11-11 18:00:00 18.1 16 Este 29 Este 0 1011 -- 90
2020-11-11 17:00:00 18.2 15 Este 31 Este 0 1011 -- 89
2020-11-11 16:00:00 18.3 19 Este 40 Este 0 1010.7 -- 88
2020-11-11 15:00:00 18.2 21 Este 36 Este 0 1010.8 -- 88
2020-11-11 14:00:00 18.2 15 Este 31 Este 0.2 1011.6 -- 87
2020-11-11 13:00:00 19.1 14 Sudeste 29 Sudeste 0 1012.2 -- 81
2020-11-11 12:00:00 18.6 16 Sudeste 27 Sudeste 0.4 1012.9 -- 82
2020-11-11 11:00:00 17.8 17 Sudeste 31 Este 0.4 1013.2 -- 85
2020-11-11 10:00:00 18.3 15 Sudeste 29 Sudeste 0 1013.1 -- 81
2020-11-11 09:00:00 18.1 15 Sudeste 32 Sudeste 0 1012.8 -- 83
2020-11-11 08:00:00 17.8 17 Sudeste 36 Este 0 1012.7 -- 83
2020-11-11 07:00:00 17.8 18 Sudeste 34 Este 0 1012.8 -- 78
2020-11-11 06:00:00 17.6 18 Este 35 Este 0 1013.1 -- 82
2020-11-11 05:00:00 17.8 18 Este 30 Este 0 1012.8 -- 83
2020-11-11 04:00:00 17.7 19 Este 28 Este 0 1013.2 -- 85
2020-11-11 03:00:00 17.8 19 Este 32 Este 0 1013.5 -- 85
2020-11-11 02:00:00 18 14 Sudeste 28 Este 0 1013.7 -- 87
2020-11-11 01:00:00 18 15 Sudeste 31 Este 0 1014.1 -- 83
2020-11-11 00:00:00 18.2 19 Este 32 Este 0 1014.3 -- 78
2020-11-10 23:00:00 18.3 11 Sudeste 24 Sudeste 0 1014.6 -- 80
2020-11-10 22:00:00 18.1 12 Sudeste 22 Sudeste 0 1014.2 -- 83
2020-11-10 21:00:00 17.8 12 Sudeste 20 Este 0 1013.8 -- 87
2020-11-10 20:00:00 17.6 9 Este 18 Este 0 1013.6 -- 87
2020-11-10 19:00:00 17.6 8 Este 15 Este 0 1013.4 -- 87
2020-11-10 18:00:00 17.7 9 Este 15 Este 0 1013.1 -- 83
2020-11-10 17:00:00 18.7 9 Este 15 Este 0 1013 -- 77
2020-11-10 16:00:00 19.7 9 Sudeste 17 Sudeste 0 1012.8 -- 75
2020-11-10 15:00:00 19.9 9 Sudeste 19 Sudeste 0 1012.9 -- 72
2020-11-10 14:00:00 20.2 9 Sudeste 18 Este 0 1013.5 -- 68
2020-11-10 13:00:00 19.9 10 Este 18 Este 0 1014.1 -- 68
2020-11-10 12:00:00 18.9 8 Norte 13 Nordeste 0 1014.4 -- 73
2020-11-10 11:00:00 18.2 6 Nordeste 14 Norte 0 1014.4 -- 71
2020-11-10 10:00:00 18.2 6 Nordeste 10 Norte 0 1014.4 -- 72
2020-11-10 09:00:00 17.2 4 Sur 6 Sur 0 1013.8 -- 71
2020-11-10 08:00:00 15.2 4 Sudoeste 8 Oeste 0 1013.1 -- 78
2020-11-10 07:00:00 15.3 5 Sudoeste 7 Sudoeste 0 1012.7 -- 75
2020-11-10 06:00:00 15.3 7 Sudoeste 9 Oeste 0 1012.6 -- 74
2020-11-10 05:00:00 15.3 3 Sudoeste 8 Oeste 0 1012.3 -- 72
2020-11-10 04:00:00 16.1 4 Sudoeste 14 Noroeste 0 1012.3 -- 67
2020-11-10 03:00:00 15.7 4 Oeste 8 Oeste 0 1012.6 -- 79
2020-11-10 02:00:00 16.2 4 Sudoeste 8 Oeste 0 1012.5 -- 77
2020-11-10 01:00:00 16.2 5 Sudoeste 7 Sudoeste 0 1012.9 -- 76
2020-11-10 00:00:00 16.8 6 Sudoeste 10 Sudoeste 0 1013.1 -- 73
2020-11-09 23:00:00 16.5 3 Oeste 8 Oeste 0 1013.3 -- 80
2020-11-09 22:00:00 17.1 3 Oeste 8 Sur 0 1013.3 -- 82
2020-11-09 21:00:00 17.6 5 Sudoeste 8 Este 0 1013 -- 76
2020-11-09 20:00:00 18.1 5 Sudoeste 9 Oeste 0 1013 -- 73
2020-11-09 19:00:00 18.3 2 Nordeste 5 Oeste 0 1012.7 -- 77
2020-11-09 18:00:00 19.6 3 Oeste 4 Oeste 0 1012.3 -- 72
2020-11-09 17:00:00 20.3 4 Sur 14 Oeste 0 1012.1 -- 65
2020-11-09 16:00:00 20.5 2 Sudoeste 13 Oeste 0 1011.9 -- 67
2020-11-09 15:00:00 20.3 4 Noroeste 12 Norte 0 1012 -- 71
2020-11-09 14:00:00 21 6 Este 13 Oeste 0 1012.1 -- 71
2020-11-09 13:00:00 20.6 5 Oeste 18 Oeste 0 1012.7 -- 70
2020-11-09 12:00:00 20 6 Sudoeste 14 Norte 0 1013.4 -- 76
2020-11-09 11:00:00 18.3 9 Norte 16 Norte 0 1013.6 -- 83
2020-11-09 10:00:00 17.7 3 Nordeste 9 Este 0 1013.3 -- 88
2020-11-09 09:00:00 16.8 4 Noroeste 7 Noroeste 0 1013 -- 94
2020-11-09 08:00:00 14.8 5 Noroeste 8 Noroeste 0 1012.2 -- 95
2020-11-09 07:00:00 15.1 4 Oeste 6 Norte 0 1011.6 -- 95
2020-11-09 06:00:00 15.6 4 Noroeste 6 Noroeste 0 1011.5 -- 95
2020-11-09 05:00:00 15.5 3 Noroeste 6 Norte 0 1011.3 -- 95
2020-11-09 04:00:00 15.8 5 Norte 7 Nordeste 0 1011.5 -- 94
2020-11-09 03:00:00 16 5 Sudoeste 6 Sudoeste 0 1011.5 -- 91
2020-11-09 02:00:00 16.3 5 Sudoeste 10 Oeste 0 1011.5 -- 91
2020-11-09 01:00:00 16.3 6 Sudoeste 8 Sudoeste 0 1011.9 -- 91
2020-11-09 00:00:00 16.1 4 Sudoeste 5 Sudoeste 0 1012.1 -- 91
2020-11-08 23:00:00 16.1 0 Calma 6 Sudoeste 0 1012.2 -- 91
2020-11-08 22:00:00 17 4 Sur 8 Sudoeste 0 1011.9 -- 91
2020-11-08 21:00:00 17.2 5 Sudoeste 8 Sudoeste 0 1011.8 -- 91
2020-11-08 20:00:00 17.2 5 Sudoeste 9 Sudoeste 0 1011.9 -- 90
2020-11-08 19:00:00 17.6 5 Sudoeste 13 Sur 0 1011.5 -- 88
2020-11-08 18:00:00 18.2 9 Sur 13 Sudeste 0 1011.5 -- 86
2020-11-08 17:00:00 19 9 Sudeste 14 Sur 0 1011.3 -- 82
2020-11-08 16:00:00 19.4 9 Sur 14 Sur 0 1011.3 -- 78
2020-11-08 15:00:00 20.3 8 Sur 14 Sudeste 0 1011.2 -- 77
2020-11-08 14:00:00 20 10 Sur 15 Sur 0 1011.6 -- 74
2020-11-08 13:00:00 20 9 Sudeste 15 Sur 0 1012.2 -- 79
2020-11-08 12:00:00 19.7 10 Sudeste 15 Sur 0 1013 -- 80
2020-11-08 11:00:00 19.4 7 Sudeste 12 Sudeste 0 1013.1 -- 78
2020-11-08 10:00:00 18.8 6 Sudeste 10 Sur 0 1013.2 -- 82
2020-11-08 09:00:00 16.9 4 Sur 7 Sur 0 1013 -- 90
2020-11-08 08:00:00 15.4 3 Sudoeste 5 Sudoeste 0 1012.5 -- 91
2020-11-08 07:00:00 15.4 3 Oeste 5 Sudoeste 0 1012.3 -- 84
2020-11-08 06:00:00 16.4 5 Oeste 9 Sudoeste 0 1012.2 -- 78
2020-11-08 05:00:00 16.5 6 Sudoeste 9 Oeste 0 1012 -- 80
2020-11-08 04:00:00 16.7 5 Sudoeste 9 Sudoeste 0 1012.2 -- 83
2020-11-08 03:00:00 16.7 5 Sudoeste 11 Sudoeste 0 1012.4 -- 85
2020-11-08 02:00:00 16.9 5 Sudoeste 12 Sudoeste 0 1012.6 -- 87
2020-11-08 01:00:00 17.5 6 Sudoeste 12 Sur 0 1012.9 -- 86
2020-11-08 00:00:00 17.9 7 Sudoeste 17 Sudoeste 0 1013.4 -- 88
2020-11-07 23:00:00 17.9 6 Sudoeste 16 Sur 0 1013.4 -- 87
2020-11-07 22:00:00 17.6 7 Sudoeste 12 Sudoeste 0 1013.4 -- 87
2020-11-07 21:00:00 17.5 5 Sudoeste 13 Sudoeste 0 1013.1 -- 83
2020-11-07 20:00:00 18.1 6 Oeste 27 Noroeste 0 1012.6 -- 77
2020-11-07 19:00:00 18.4 12 Noroeste 23 Noroeste 0 1012 -- 75
2020-11-07 18:00:00 19.2 13 Noroeste 22 Noroeste 0 1011.8 -- 75
2020-11-07 17:00:00 21.2 5 Noroeste 19 Oeste 0 1011.6 -- 67
2020-11-07 16:00:00 22.3 7 Oeste 22 Oeste 0 1011.6 -- 59
2020-11-07 15:00:00 21.8 9 Oeste 24 Oeste 0 1011.5 -- 61
2020-11-07 14:00:00 21.9 9 Oeste 24 Sudoeste 0 1011.5 -- 61
2020-11-07 13:00:00 22.2 9 Sudoeste 22 Sudoeste 0 1012 -- 63
2020-11-07 12:00:00 21.3 7 Sudoeste 26 Sudoeste 0 1012.1 -- 63
2020-11-07 11:00:00 20.4 8 Sudoeste 24 Sudoeste 0 1011.4 -- 69
2020-11-07 10:00:00 18.5 9 Sudoeste 27 Sudoeste 0.2 1010.7 -- 81
2020-11-07 09:00:00 18.6 12 Sudoeste 32 Sudoeste 0 1009.9 -- 77
2020-11-07 08:00:00 17.9 12 Sudoeste 31 Sur 0 1008.8 -- 79
2020-11-07 07:00:00 17.7 12 Sudoeste 34 Oeste 0.4 1007.2 -- 79
2020-11-07 06:00:00 17.5 12 Sudoeste 32 Sudoeste 1 1006.5 -- 81
2020-11-07 05:00:00 16.9 15 Sudoeste 36 Sudoeste 4.2 1005.8 -- 84
2020-11-07 04:00:00 19.7 15 Sudoeste 32 Sudoeste 0 1005.1 -- 65
2020-11-07 03:00:00 19.7 12 Sudoeste 29 Sudoeste 0 1004.9 -- 65
2020-11-07 02:00:00 19.4 8 Sudeste 15 Sudoeste 0 1004.6 -- 62
2020-11-07 01:00:00 19.1 6 Sur 14 Sudoeste 0 1004.9 -- 63
2020-11-07 00:00:00 18.5 5 Sudoeste 12 Sudeste 0 1004.4 -- 70
2020-11-06 23:00:00 19 6 Sudoeste 19 Sudoeste 0 1004.5 -- 65
2020-11-06 22:00:00 19.6 12 Sur 27 Sur 0.2 1003.9 -- 63
2020-11-06 21:00:00 19.7 5 Sudoeste 17 Sudoeste 0 1004.3 -- 62
2020-11-06 20:00:00 19.2 5 Oeste 13 Norte 0 1004.1 -- 74
2020-11-06 19:00:00 19.8 9 Noroeste 21 Noroeste 0 1002.7 -- 74
2020-11-06 18:00:00 20.1 10 Norte 22 Norte 0 1002 -- 71
2020-11-06 17:00:00 20.3 11 Noroeste 23 Norte 0 1001.9 -- 73
2020-11-06 16:00:00 20.8 13 Norte 30 Nordeste 0 1001.3 -- 71
2020-11-06 15:00:00 21.5 14 Norte 28 Norte 0 1001.1 -- 72
2020-11-06 14:00:00 21.3 16 Norte 26 Norte 0 1001.2 -- 75
2020-11-06 13:00:00 21.1 11 Norte 19 Norte 0 1001.2 -- 81
2020-11-06 12:00:00 20.2 9 Norte 18 Norte 0 1001.7 -- 85
2020-11-06 11:00:00 19 7 Nordeste 16 Nordeste 0 1001.6 0.8 92
2020-11-06 10:00:00 18.7 7 Nordeste 14 Norte 0 1001.5 -- 95
2020-11-06 09:00:00 18.5 6 Norte 13 Norte 0 1001.3 -- 95
2020-11-06 08:00:00 17.9 7 Norte 15 Nordeste 0 1000.8 -- 94
2020-11-06 07:00:00 17.9 6 Norte 15 Noroeste 0 1001.3 -- 92
2020-11-06 06:00:00 17.7 5 Norte 10 Norte 0 1001.3 -- 93
2020-11-06 05:00:00 17.6 4 Noroeste 8 Nordeste 0 1001.6 -- 93
2020-11-06 04:00:00 17.1 3 Norte 6 Nordeste 0 1001.8 -- 94
2020-11-06 03:00:00 16.7 3 Noroeste 6 Nordeste 0 1002.2 -- 94
2020-11-06 02:00:00 17.1 3 Noroeste 6 Oeste 0 1002.5 -- 94
2020-11-06 01:00:00 17.4 0 Calma 9 Sudoeste 0 1003.2 -- 94
2020-11-06 00:00:00 17.7 3 Este 8 Sudoeste 0 1003.5 -- 93
2020-11-05 23:00:00 18 6 Oeste 9 Sur 0 1004.2 -- 95
2020-11-05 22:00:00 18.3 5 Sudoeste 9 Este 0.2 1004 -- 93
2020-11-05 21:00:00 18.3 5 Sur 12 Sudeste 0 1003.6 -- 93
2020-11-05 20:00:00 18.4 6 Sudeste 13 Sur 0 1003.5 -- 93
2020-11-05 19:00:00 18.7 8 Sudeste 16 Sur 0 1003.1 -- 93
2020-11-05 18:00:00 18.9 6 Sudeste 14 Sudeste 0 1002.4 -- 93
2020-11-05 17:00:00 19.1 8 Sur 16 Sudeste 0 1002.2 -- 91
2020-11-05 16:00:00 19.8 10 Sudeste 19 Sur 0 1001.4 -- 87
2020-11-05 15:00:00 20.1 10 Sudeste 19 Sudeste 0 1001.4 -- 86
2020-11-05 14:00:00 20.8 10 Sudeste 21 Sudeste 0 1001.6 -- 78
2020-11-05 13:00:00 20.6 10 Sudeste 19 Sudeste 0 1002.2 -- 79
2020-11-05 12:00:00 20.1 11 Sur 22 Sur 0 1002.9 -- 68
2020-11-05 11:00:00 18.7 6 Sur 15 Sur 0 1003.4 -- 70
2020-11-05 10:00:00 17.9 5 Sudoeste 13 Sur 0 1003.8 -- 71
2020-11-05 09:00:00 17.7 8 Sur 31 Sur 0 1003.1 -- 66
2020-11-05 08:00:00 17.8 11 Sur 19 Sur 0 1002.5 -- 64
2020-11-05 07:00:00 17.1 6 Sur 12 Sudoeste 0 1002 -- 71
2020-11-05 06:00:00 16.9 6 Sudoeste 12 Sudoeste 0 1001.7 -- 73
2020-11-05 05:00:00 17.2 7 Sudoeste 13 Sudoeste 0 1001.2 -- 72
2020-11-05 04:00:00 16.7 8 Sudoeste 17 Sudoeste 0 1001 -- 88
2020-11-05 03:00:00 16.4 8 Sudoeste 16 Sur 0 1000.8 -- 91
2020-11-05 02:00:00 16.6 10 Sur 29 Sur 0 1000.6 -- 91
2020-11-05 01:00:00 16.8 15 Sur 28 Sudeste 0.2 1000.7 -- 91
2020-11-05 00:00:00 16.1 15 Sur 30 Sur 0 1001.5 -- 91
2020-11-04 23:00:00 16.4 18 Sur 34 Sur 1.2 1002.2 -- 88
2020-11-04 22:00:00 16.8 12 Sur 25 Sur 0.8 1002.6 -- 91
2020-11-04 21:00:00 16.6 7 Sur 14 Sur 0 1002.6 -- 91
2020-11-04 20:00:00 16.6 6 Sur 17 Sur 0 1002.8 -- 90
2020-11-04 19:00:00 16.7 9 Sur 19 Sudeste 0 1002.9 -- 88
2020-11-04 18:00:00 16.7 10 Sur 17 Sur 3.2 1002.7 -- 93
2020-11-04 17:00:00 17.3 10 Sur 14 Sur 0.4 1004 -- 87
2020-11-04 16:00:00 18.3 6 Sudeste 16 Nordeste 0 1003.8 -- 79
2020-11-04 15:00:00 19.2 9 Nordeste 14 Este 0 1004.4 -- 72
2020-11-04 14:00:00 18.6 5 Este 11 Este 0 1005.3 -- 75
2020-11-04 13:00:00 17.9 8 Sur 15 Sur 0 1006.5 -- 75
2020-11-04 12:00:00 17.3 6 Sur -- -- -- -- -- 77
2020-11-04 11:00:00 -- -- -- -- -- -- -- -- --
2020-11-04 10:00:00 -- -- -- -- -- -- -- -- --
2020-11-04 09:00:00 16.4 4 Sudoeste 7 Sudoeste 0 1008.2 -- 79
2020-11-04 08:00:00 16.5 4 Sur 10 Sudoeste 0 1008.3 -- 80
2020-11-04 07:00:00 16.8 8 Sudeste 14 Este 0 1008.6 -- 83
2020-11-04 06:00:00 16.9 8 Este 16 Nordeste 0 1009 -- 81
2020-11-04 05:00:00 17.1 10 Este 17 Este 0 1009.5 -- 80
2020-11-04 04:00:00 17.1 10 Este 19 Este 0 1010.2 -- 79
2020-11-04 03:00:00 17.1 8 Sudeste 17 Este 0 1010.8 -- 82
2020-11-04 02:00:00 16.8 7 Sudeste 14 Sudeste 0 1011.2 -- 86
2020-11-04 01:00:00 16.3 4 Sudoeste 9 Sur 0 1011.7 -- 88
2020-11-04 00:00:00 16.3 5 Sudoeste 11 Sur 0 1012 -- 88
2020-11-03 23:00:00 16.2 5 Sudoeste 10 Sudoeste 0 1012.2 -- 90
2020-11-03 22:00:00 16.3 6 Sudoeste 10 Sudoeste 0 1012.3 -- 89
2020-11-03 21:00:00 16.2 6 Sudoeste 12 Sudoeste 0 1012.3 -- 90
2020-11-03 20:00:00 16.2 7 Sudoeste 13 Sudoeste 0 1012 -- 89
2020-11-03 19:00:00 16.8 6 Sudoeste 17 Sur 0 1011.8 -- 86
2020-11-03 18:00:00 17.3 10 Sur 19 Sur 0 1011.7 -- 84
2020-11-03 17:00:00 17.6 13 Sur 19 Sur 0 1011.5 -- 82
2020-11-03 16:00:00 18.4 9 Sur 14 Sur 0 1011.4 -- 78
2020-11-03 15:00:00 18.8 6 Sur 14 Sudeste 0 1011.8 -- 76
2020-11-03 14:00:00 19.3 8 Sudeste 14 Sudeste 0 1012 -- 73
2020-11-03 13:00:00 18.3 8 Sudeste 17 Sudeste 0 1012.7 -- 75
2020-11-03 12:00:00 17.5 10 Sur 17 Sur 0 1013.1 -- 79
2020-11-03 11:00:00 17.1 9 Sur 15 Sudeste 0 1013.1 -- 81
2020-11-03 10:00:00 16.4 8 Sur 17 Sur 0 1012.9 -- 85
2020-11-03 09:00:00 15.3 8 Sudoeste 14 Sur 0 1012.5 -- 89
2020-11-03 08:00:00 14.9 6 Sudoeste 12 Sudoeste 0 1012 -- 90
2020-11-03 07:00:00 14.6 5 Sudoeste 11 Sudoeste 0 1011.9 -- 92
2020-11-03 06:00:00 14.7 5 Sudoeste 8 Sudoeste 0 1011.5 -- 92
2020-11-03 05:00:00 14.9 5 Sudoeste 10 Sudoeste 0 1011.5 -- 91
2020-11-03 04:00:00 15.3 5 Sudoeste 11 Sur 0 1011.6 -- 90
2020-11-03 03:00:00 15.7 6 Sudoeste 10 Sudoeste 0 1011.6 -- 89
2020-11-03 02:00:00 16 6 Sur 12 Sur 0 1011.8 -- 88
2020-11-03 01:00:00 16.1 6 Sur 11 Sur 0 1012.1 -- 89
2020-11-03 00:00:00 15.6 3 Sudoeste 12 Sur 0 1012.4 -- 91
2020-11-02 23:00:00 15.6 6 Sudoeste 11 Sudoeste 0 1012.4 -- 90
2020-11-02 22:00:00 15.9 7 Sudoeste 13 Sudoeste 0 1012.3 -- 89
2020-11-02 21:00:00 16.1 9 Sudoeste 14 Sur 0 1012.2 -- 88
2020-11-02 20:00:00 16.6 8 Sur 15 Sudoeste 0 1012 -- 86
2020-11-02 19:00:00 17.1 9 Sur 17 Sur 0 1011.5 -- 85
2020-11-02 18:00:00 17.6 9 Sur 21 Sur 0 1011.2 -- 82
2020-11-02 17:00:00 18.4 10 Sur 18 Sudeste 0 1011.2 -- 79
2020-11-02 16:00:00 18.9 10 Sudeste 16 Sudeste 0 1011.3 -- 77
2020-11-02 15:00:00 18.8 10 Sudeste 16 Sudeste 0 1011.6 -- 77
2020-11-02 14:00:00 19.1 10 Sudeste 18 Sur 0 1012.1 -- 76
2020-11-02 13:00:00 19.5 11 Sudeste 18 Sur 0 1012.9 -- 74
2020-11-02 12:00:00 19.1 12 Sudeste 19 Sudeste 0 1013.3 -- 75
2020-11-02 11:00:00 18.2 11 Sudeste 19 Sur 0 1013.5 -- 81
2020-11-02 10:00:00 17.6 9 Sudeste 16 Este 0 1013.2 -- 82
2020-11-02 09:00:00 17.2 8 Sudeste 15 Sudeste 0 1012.6 -- 84
2020-11-02 08:00:00 16.8 8 Sudeste 13 Sudeste 0 1011.9 -- 87
2020-11-02 07:00:00 16.9 8 Sudeste 15 Sudeste 0 1011.7 -- 86
2020-11-02 06:00:00 17.1 8 Sudeste 13 Sur 0 1011.5 -- 85
2020-11-02 05:00:00 17.3 8 Sudeste 16 Sudeste 0 1011.6 -- 84
2020-11-02 04:00:00 17.3 7 Sur 15 Sudeste 0 1011.5 -- 85
2020-11-02 03:00:00 17.3 7 Sudeste 14 Sudeste 0 1011.9 -- 86
2020-11-02 02:00:00 17.3 7 Sudeste 12 Sur 0 1012.1 -- 88
2020-11-02 01:00:00 17 5 Sur 11 Sudoeste 0 1012.4 -- 90
2020-11-02 00:00:00 16.7 5 Sudoeste 13 Sudoeste 0 1012.7 -- 92
2020-11-01 23:00:00 17 6 Sur 15 Sur 0 1013 -- 91
2020-11-01 22:00:00 16.9 7 Sudoeste 11 Sudoeste 0 1013 -- 92
2020-11-01 21:00:00 16.8 6 Sudoeste 10 Sudoeste 0 1012.7 -- 92
2020-11-01 20:00:00 17.1 5 Sur 9 Sur 0 1012.8 -- 91
2020-11-01 19:00:00 17.5 6 Sur 14 Sur 0 1012.5 -- 89
2020-11-01 18:00:00 18.1 9 Sur 17 Sur 0 1012.4 -- 87
2020-11-01 17:00:00 19.1 9 Sudeste 16 Sudeste 0 1012.6 -- 81
2020-11-01 16:00:00 19.5 10 Sur 17 Sudeste 0 1012.9 -- 80
2020-11-01 15:00:00 19.7 9 Sur 17 Sur 0 1013.2 -- 79
2020-11-01 14:00:00 19.3 10 Sur 16 Sur 0 1013.7 -- 79
2020-11-01 13:00:00 18.1 6 Sur 11 Sur 0 1014.4 -- 86
2020-11-01 12:00:00 17 4 Sudeste 10 Sur 0 1015.1 -- 92
2020-11-01 11:00:00 16.4 5 Sudeste 11 Sudeste 0 1014.9 -- 95
2020-11-01 10:00:00 15.9 8 Sur 15 Sur 0 1014.5 -- 97
2020-11-01 09:00:00 15.5 8 Sudoeste 14 Sudoeste 0 1013.9 -- 97
2020-11-01 08:00:00 15.5 8 Sudoeste 15 Sur 0 1013.4 -- 97
2020-11-01 07:00:00 16.2 8 Sudoeste 14 Sudoeste 0 1013 -- 96
2020-11-01 06:00:00 16.3 5 Sudoeste 9 Oeste 0 1013.3 -- 96
2020-11-01 05:00:00 16.3 6 Sudoeste 8 Sudoeste 0 1013.4 -- 95
2020-11-01 04:00:00 16.2 3 Sudoeste 12 Sudoeste 0 1013.8 -- 92
2020-11-01 03:00:00 16.6 9 Sudoeste 13 Sudoeste 0 1013.9 -- 91
2020-11-01 02:00:00 16.7 9 Sudoeste 12 Sudoeste 0 1014.2 -- 89
2020-11-01 01:00:00 16.4 5 Sudoeste 7 Sudoeste 0 1014.4 -- 89
2020-11-01 00:00:00 16.3 5 Sudoeste 8 Sudoeste 0 1014.6 -- 91
2020-10-31 23:00:00 16.6 5 Sudoeste 8 Oeste 0 1014.8 -- 91
2020-10-31 22:00:00 16.4 4 Sudoeste 10 Sudoeste 0 1014.8 -- 82
2020-10-31 21:00:00 17.3 8 Sur 12 Sudoeste 0 1014.1 -- 84
2020-10-31 20:00:00 17.6 8 Sudoeste 13 Sur 0 1013.8 -- 87
2020-10-31 19:00:00 18.2 8 Sur 13 Sur 0 1013.5 -- 87
2020-10-31 18:00:00 19 9 Sur 11 Sur 0 1013.7 -- 83
2020-10-31 17:00:00 20.3 8 Sur 14 Sur 0 1013.7 -- 79
2020-10-31 16:00:00 20.6 9 Sur 14 Sudeste 0 1013.6 -- 76
2020-10-31 15:00:00 20.8 9 Sudeste 14 Sudeste 0 1013.8 -- 73
2020-10-31 14:00:00 19.9 8 Nordeste 11 Nordeste 0 1014.5 -- 79
2020-10-31 13:00:00 19.4 6 Nordeste 12 Nordeste 0 1015.2 -- 80
2020-10-31 12:00:00 19.4 6 Nordeste 10 Este 0 1015.6 -- 79
2020-10-31 11:00:00 18 5 Nordeste 13 Norte 0 1015.7 -- 85
2020-10-31 10:00:00 18.1 7 Norte 13 Noroeste 0 1015.5 -- 87
2020-10-31 09:00:00 18 4 Sudeste 8 Sur 0 1015.1 -- 89
2020-10-31 08:00:00 17.7 3 Norte 12 Este 0 1014.4 -- 89
2020-10-31 07:00:00 17.7 8 Este 16 Este 0 1014.1 -- 87
2020-10-31 06:00:00 17.8 8 Este 13 Este 0 1014.1 -- 88
2020-10-31 05:00:00 17.8 8 Este 15 Este 0 1013.9 -- 89
2020-10-31 04:00:00 17.8 8 Este 17 Este 0 1013.9 -- 89
2020-10-31 03:00:00 17.7 9 Nordeste 17 Este 0 1014.2 -- 90
2020-10-31 02:00:00 17.9 8 Este 15 Este 0 1014.4 -- 90
2020-10-31 01:00:00 17.9 10 Este 17 Este 0 1014.4 -- 89
2020-10-31 00:00:00 17.9 9 Este 16 Sudeste 0 1014.5 -- 89
2020-10-30 23:00:00 17.9 8 Este 21 Este 0 1014.5 -- 89
2020-10-30 22:00:00 18 9 Este 18 Este 0 1014.3 -- 86
2020-10-30 21:00:00 18 12 Este 21 Este 0 1014.1 -- 84
2020-10-30 20:00:00 18 10 Este 18 Este 0 1013.7 -- 85
2020-10-30 19:00:00 18 10 Este 18 Nordeste 0 1013.4 -- 87
2020-10-30 18:00:00 18.1 11 Nordeste 18 Nordeste 0 1013.4 -- 84
2020-10-30 17:00:00 18.3 12 Nordeste 21 Este 0 1013.4 -- 83
2020-10-30 16:00:00 18.6 13 Este 23 Este 0 1013.5 -- 82
2020-10-30 15:00:00 18.7 13 Este 23 Este 0 1013.8 -- 80
2020-10-30 14:00:00 18.8 14 Nordeste 23 Nordeste 0 1014.3 -- 81
2020-10-30 13:00:00 19 13 Nordeste 23 Este 0 1014.6 -- 79
2020-10-30 12:00:00 19.9 14 Este 22 Nordeste 0 1015.1 -- 77
2020-10-30 11:00:00 18.7 12 Nordeste 23 Este 0 1015.2 -- 84
2020-10-30 10:00:00 18 12 Nordeste 22 Este 0 1015.4 -- 87
2020-10-30 09:00:00 18.7 12 Este 19 Este 0 1014.8 -- 84
2020-10-30 08:00:00 17.5 9 Este 17 Este 0 1014.4 -- 90
2020-10-30 07:00:00 17.4 12 Este 19 Este 0 1014.1 -- 90
2020-10-30 06:00:00 17.5 9 Nordeste 20 Este 0 1013.9 -- 92
2020-10-30 05:00:00 17.6 9 Este 20 Este 0 1013.7 -- 90
2020-10-30 04:00:00 17.6 10 Este 21 Este 0 1014 -- 89
2020-10-30 03:00:00 17.4 12 Este 21 Este 0 1014.1 -- 88
2020-10-30 02:00:00 17 13 Este 19 Este 0 1014.2 -- 84
2020-10-30 01:00:00 16.8 8 Este 14 Este 0 1014.3 -- 84
2020-10-30 00:00:00 16.9 8 Este 17 Este 0 1014.5 -- 84
2020-10-29 23:00:00 17.3 11 Este 19 Sudeste 0 1014.7 -- 82
2020-10-29 22:00:00 17.6 8 Sudeste 19 Sudeste 0 1014.5 -- 88
2020-10-29 21:00:00 17.6 10 Sudeste 21 Sudeste 0 1014.2 -- 87
2020-10-29 20:00:00 17.8 11 Sudeste 22 Sudeste 0 1014.2 -- 87
2020-10-29 19:00:00 17.9 14 Sudeste 26 Sudeste 0 1013.9 -- 85
2020-10-29 18:00:00 18.1 13 Sudeste 24 Este 0 1013.6 -- 86
2020-10-29 17:00:00 18.5 17 Este 26 Este 0 1013.6 -- 84
2020-10-29 16:00:00 19.1 17 Este 28 Sudeste 0 1013.5 -- 81
2020-10-29 15:00:00 19.8 19 Este 27 Este 0 1013.6 -- 74
2020-10-29 14:00:00 20.4 17 Sudeste 28 Sudeste 0 1014.1 -- 67
2020-10-29 13:00:00 20.6 17 Sudeste 27 Este 0 1014.7 -- 66
2020-10-29 12:00:00 20.3 17 Este 27 Este 0 1015 -- 64
2020-10-29 11:00:00 19.9 14 Este 26 Este 0 1015 -- 70
2020-10-29 10:00:00 18.7 13 Sudeste 21 Este 0 1014.9 -- 78
2020-10-29 09:00:00 18.3 12 Este 18 Sudeste 0 1014.3 -- 81
2020-10-29 08:00:00 16.9 9 Sudeste 15 Sudeste 0 1013.5 -- 85
2020-10-29 07:00:00 16.6 8 Sudeste 15 Sudeste 0 1013 -- 85
2020-10-29 06:00:00 16.4 10 Sudeste 17 Sudeste 0 1012.8 -- 85
2020-10-29 05:00:00 15.9 5 Sudeste 12 Sudeste 0 1012.7 -- 88
2020-10-29 04:00:00 15.4 4 Sudoeste 7 Sudoeste 0 1012.5 -- 89
2020-10-29 03:00:00 15.7 5 Sudoeste 11 Sudoeste 0 1012.7 -- 87
2020-10-29 02:00:00 16 6 Sudoeste 10 Sudoeste 0 1012.7 -- 84
2020-10-29 01:00:00 16 5 Sur 8 Sur 0 1013.1 -- 83
2020-10-29 00:00:00 16.2 5 Sudoeste 8 Sur 0 1013.1 -- 81
2020-10-28 23:00:00 16.3 5 Sudoeste 10 Sudoeste 0 1013.2 -- 80
2020-10-28 22:00:00 16.7 7 Sudoeste 13 Sudoeste 0 1012.8 -- 77
2020-10-28 21:00:00 16.8 8 Sudoeste 14 Sudoeste 0 1012.3 -- 75
2020-10-28 20:00:00 17 6 Sudoeste 13 Sudoeste 0 1012.2 -- 74
2020-10-28 19:00:00 17.4 7 Sudoeste 12 Sur 0 1011.7 -- 72
2020-10-28 18:00:00 18.3 9 Sur 14 Sur 0 1011.4 -- 66
2020-10-28 17:00:00 19.7 9 Sur 14 Sudeste 0 1011.2 -- 59
2020-10-28 16:00:00 20.4 7 Sudeste 10 Sudeste 0 1011.2 -- 53
2020-10-28 15:00:00 19.8 6 Nordeste 13 Este 0 1011.3 -- 58
2020-10-28 14:00:00 19.8 8 Nordeste 14 Este 0 1011.5 -- 58
2020-10-28 13:00:00 19.7 8 Nordeste 15 Nordeste 0 1012.1 -- 55
2020-10-28 12:00:00 19.6 10 Nordeste 15 Este 0 1012.4 -- 54
2020-10-28 11:00:00 20 7 Este 12 Este 0 1012.1 -- 51
2020-10-28 10:00:00 19.4 4 Sudeste 9 Sudeste 0 1011.6 -- 50
2020-10-28 09:00:00 17.9 3 Sudeste 5 Sudoeste 0 1011.1 -- 57
2020-10-28 08:00:00 14.8 2 Sudoeste 7 Oeste 0 1010.2 -- 58
2020-10-28 07:00:00 14.7 4 Sudoeste 12 Sudoeste 0 1009.9 -- 53
2020-10-28 06:00:00 14.5 3 Oeste 8 Oeste 0 1009.5 -- 54
2020-10-28 05:00:00 14.8 6 Sudoeste 8 Oeste 0 1009.5 -- 59
2020-10-28 04:00:00 14.4 4 Sudoeste 6 Sudoeste 0 1009.4 -- 58
2020-10-28 03:00:00 15 6 Oeste 9 Sudoeste 0 1009.6 -- 56
2020-10-28 02:00:00 15.1 3 Oeste 10 Oeste 0 1009.8 -- 59
2020-10-28 01:00:00 15.2 4 Noroeste 11 Oeste 0 1010.3 -- 54
2020-10-28 00:00:00 15.5 4 Oeste 14 Sudoeste 0 1010.6 -- 56